createdAt,value
2018-06-17T00:02:14.462Z,16.04
2018-06-17T00:04:43.724Z,15.85
2018-06-17T00:07:13.087Z,15.71
2018-06-17T00:09:42.295Z,15.53
2018-06-17T00:12:11.486Z,15.41
2018-06-17T00:14:40.711Z,15.37
2018-06-17T00:17:09.884Z,15.28
2018-06-17T00:19:39.307Z,15.34
2018-06-17T00:22:08.694Z,15.21
2018-06-17T00:24:37.911Z,15.36
2018-06-17T00:27:07.099Z,15.42
2018-06-17T00:29:36.290Z,15.48
2018-06-17T00:32:06.038Z,15.60
2018-06-17T00:34:35.237Z,15.55
2018-06-17T00:37:04.415Z,15.51
2018-06-17T00:39:33.827Z,15.47
2018-06-17T00:42:03.346Z,15.43
2018-06-17T00:44:32.571Z,15.36
2018-06-17T00:47:01.795Z,15.23
2018-06-17T00:49:31.118Z,15.11
2018-06-17T00:52:00.983Z,15.02
2018-06-17T00:54:30.202Z,14.83
2018-06-17T00:57:10.539Z,14.70
2018-06-17T00:59:39.723Z,14.57
2018-06-17T01:02:09.495Z,14.61
2018-06-17T01:04:38.694Z,14.42
2018-06-17T01:07:08.109Z,14.35
2018-06-17T01:09:37.320Z,14.13
2018-06-17T01:12:06.492Z,14.11
2018-06-17T01:14:36.118Z,14.09
2018-06-17T01:17:05.315Z,13.99
2018-06-17T01:19:34.526Z,13.86
2018-06-17T01:22:03.728Z,13.74
2018-06-17T01:24:33.178Z,13.77
2018-06-17T01:27:02.684Z,13.79
2018-06-17T01:29:31.883Z,13.70
2018-06-17T01:32:01.043Z,13.60
2018-06-17T01:34:30.687Z,13.47
2018-06-17T01:37:00.028Z,13.52
2018-06-17T01:39:29.231Z,13.54
2018-06-17T01:41:58.410Z,13.53
2018-06-17T01:44:27.607Z,13.51
2018-06-17T01:46:56.816Z,13.51
2018-06-17T01:49:26.208Z,13.50
2018-06-17T01:51:55.439Z,13.51
2018-06-17T01:54:24.623Z,13.45
2018-06-17T01:56:53.927Z,13.44
2018-06-17T01:59:23.821Z,13.42
2018-06-17T02:01:53.026Z,13.40
2018-06-17T02:04:27.411Z,13.40
2018-06-17T02:07:01.850Z,13.35
2018-06-17T02:09:36.162Z,13.35
2018-06-17T02:12:21.657Z,13.36
2018-06-17T02:14:56.123Z,13.42
2018-06-17T02:17:26.020Z,13.46
2018-06-17T02:19:55.692Z,13.61
2018-06-17T02:22:25.095Z,13.76
2018-06-17T02:24:55.077Z,13.83
2018-06-17T02:27:24.287Z,13.85
2018-06-17T02:29:53.547Z,13.98
2018-06-17T02:32:23.047Z,13.96
2018-06-17T02:34:52.590Z,13.94
2018-06-17T02:37:22.430Z,13.83
2018-06-17T02:39:51.570Z,13.77
2018-06-17T02:42:21.084Z,13.72
2018-06-17T02:44:55.483Z,13.71
2018-06-17T02:47:29.936Z,13.78
2018-06-17T02:50:03.300Z,13.79
2018-06-17T02:52:37.687Z,13.78
2018-06-17T02:55:06.874Z,13.75
2018-06-17T02:57:36.093Z,13.61
2018-06-17T03:00:05.312Z,13.54
2018-06-17T03:02:34.528Z,13.57
2018-06-17T03:05:03.842Z,13.54
2018-06-17T03:07:33.027Z,13.57
2018-06-17T03:10:02.347Z,13.61
2018-06-17T03:12:31.831Z,13.59
2018-06-17T03:15:01.001Z,13.57
2018-06-17T03:17:30.577Z,13.67
2018-06-17T03:20:00.088Z,13.69
2018-06-17T03:22:29.307Z,13.67
2018-06-17T03:25:03.898Z,13.54
2018-06-17T03:27:38.283Z,13.45
2018-06-17T03:30:12.676Z,13.32
2018-06-17T03:34:49.047Z,13.14
2018-06-17T03:37:18.246Z,12.88
2018-06-17T03:39:47.926Z,12.78
2018-06-17T03:42:17.947Z,12.68
2018-06-17T03:44:47.130Z,12.69
2018-06-17T03:47:16.610Z,12.65
2018-06-17T03:49:45.906Z,12.52
2018-06-17T03:52:15.103Z,12.51
2018-06-17T03:54:44.390Z,12.59
2018-06-17T03:57:13.743Z,12.68
2018-06-17T03:59:42.917Z,12.83
2018-06-17T04:02:12.127Z,12.95
2018-06-17T04:05:44.706Z,13.17
2018-06-17T04:08:13.910Z,13.31
2018-06-17T04:10:43.074Z,13.24
2018-06-17T04:13:12.797Z,13.24
2018-06-17T04:15:41.969Z,13.52
2018-06-17T04:18:11.473Z,13.84
2018-06-17T04:20:41.431Z,14.02
2018-06-17T04:23:10.635Z,14.16
2018-06-17T04:25:40.013Z,14.34
2018-06-17T04:28:09.155Z,14.32
2018-06-17T04:30:38.334Z,14.43
2018-06-17T04:33:07.546Z,14.60
2018-06-17T04:35:36.934Z,14.66
2018-06-17T04:38:06.251Z,14.78
2018-06-17T04:40:35.419Z,15.13
2018-06-17T04:43:04.754Z,15.26
2018-06-17T04:45:35.098Z,15.36
2018-06-17T04:48:04.438Z,15.38
2018-06-17T04:50:33.644Z,15.53
2018-06-17T04:53:02.869Z,15.56
2018-06-17T04:55:32.064Z,15.65
2018-06-17T04:58:01.274Z,15.81
2018-06-17T05:00:30.458Z,15.89
2018-06-17T05:02:59.944Z,16.09
2018-06-17T05:05:29.435Z,16.10
2018-06-17T05:07:58.648Z,16.08
2018-06-17T05:10:27.938Z,16.00
2018-06-17T05:12:57.130Z,15.94
2018-06-17T05:15:26.304Z,15.88
2018-06-17T05:17:55.527Z,16.34
2018-06-17T05:20:24.935Z,16.58
2018-06-17T05:22:54.148Z,16.58
2018-06-17T05:25:23.311Z,16.65
2018-06-17T05:27:52.511Z,17.16
2018-06-17T05:30:21.678Z,17.11
2018-06-17T05:32:51.855Z,16.93
2018-06-17T05:35:21.054Z,16.67
2018-06-17T05:37:50.567Z,16.73
2018-06-17T05:40:20.023Z,16.76
2018-06-17T05:42:49.220Z,16.97
2018-06-17T05:45:18.391Z,17.40
2018-06-17T05:47:47.582Z,17.39
2018-06-17T05:50:16.760Z,17.37
2018-06-17T05:52:46.600Z,17.55
2018-06-17T05:55:16.273Z,17.98
2018-06-17T05:57:45.503Z,18.30
2018-06-17T06:00:14.687Z,18.39
2018-06-17T06:02:43.928Z,18.26
2018-06-17T06:05:13.353Z,17.86
2018-06-17T06:07:42.967Z,17.58
2018-06-17T06:10:12.151Z,17.93
2018-06-17T06:12:41.390Z,18.11
2018-06-17T06:15:10.583Z,17.93
2018-06-17T06:17:40.021Z,18.31
2018-06-17T06:20:10.386Z,18.30
2018-06-17T06:22:39.724Z,18.55
2018-06-17T06:25:09.099Z,18.65
2018-06-17T06:27:38.290Z,18.33
2018-06-17T06:30:07.474Z,18.85
2018-06-17T06:32:36.928Z,18.55
2018-06-17T06:35:06.130Z,19.28
2018-06-17T06:37:35.618Z,19.93
2018-06-17T06:40:04.835Z,20.39
2018-06-17T06:42:34.075Z,21.75
2018-06-17T06:45:04.383Z,21.71
2018-06-17T06:47:33.559Z,22.69
2018-06-17T06:50:02.980Z,21.14
2018-06-17T06:52:32.183Z,21.31
2018-06-17T06:55:01.355Z,21.63
2018-06-17T06:57:30.783Z,22.31
2018-06-17T07:00:00.482Z,21.69
2018-06-17T07:02:40.787Z,22.08
2018-06-17T07:05:21.407Z,22.72
2018-06-17T07:08:01.811Z,23.37
2018-06-17T07:10:31.307Z,23.63
2018-06-17T07:13:00.512Z,22.73
2018-06-17T07:17:47.652Z,22.29
2018-06-17T07:20:16.843Z,21.03
2018-06-17T07:22:48.110Z,20.60
2018-06-17T07:25:27.588Z,21.55
2018-06-17T07:28:11.364Z,23.52
2018-06-17T07:30:40.231Z,24.17
2018-06-17T07:33:09.112Z,24.87
2018-06-17T07:35:38.025Z,23.46
2018-06-17T07:38:07.196Z,24.24
2018-06-17T07:40:55.271Z,25.29
2018-06-17T07:43:24.230Z,24.49
2018-06-17T07:45:53.178Z,23.83
2018-06-17T07:50:40.131Z,23.64
2018-06-17T07:53:16.187Z,24.94
2018-06-17T07:55:45.399Z,24.88
2018-06-17T07:58:14.880Z,24.06
2018-06-17T08:00:43.910Z,23.73
2018-06-17T08:03:13.174Z,23.26
2018-06-17T08:05:42.106Z,22.00
2018-06-17T08:08:11.339Z,23.90
2018-06-17T08:10:40.312Z,25.29
2018-06-17T08:13:09.302Z,26.78
2018-06-17T08:15:38.304Z,26.58
2018-06-17T08:18:07.530Z,27.26
2018-06-17T08:20:37.055Z,28.30
2018-06-17T08:23:06.308Z,26.45
2018-06-17T08:25:35.308Z,28.17
2018-06-17T08:28:04.602Z,25.71
2018-06-17T08:30:33.896Z,25.32
2018-06-17T08:33:03.166Z,24.12
2018-06-17T08:35:32.078Z,23.90
2018-06-17T08:38:01.259Z,21.91
2018-06-17T08:40:30.782Z,21.74
2018-06-17T08:42:59.784Z,22.01
2018-06-17T08:45:28.827Z,22.77
2018-06-17T08:47:57.766Z,22.53
2018-06-17T08:50:26.691Z,21.53
2018-06-17T08:52:55.758Z,21.67
2018-06-17T08:55:25.028Z,20.96
2018-06-17T08:57:53.902Z,21.43
2018-06-17T09:00:22.829Z,22.15
2018-06-17T09:02:51.820Z,23.55
2018-06-17T09:05:20.771Z,25.43
2018-06-17T09:07:50.451Z,24.07
2018-06-17T09:10:21.143Z,22.91
2018-06-17T09:12:52.166Z,23.58
2018-06-17T09:15:24.637Z,24.90
2018-06-17T09:17:54.512Z,23.39
2018-06-17T09:20:25.910Z,23.07
2018-06-17T09:22:56.058Z,22.54
2018-06-17T09:25:28.391Z,22.05
2018-06-17T09:27:59.994Z,22.44
2018-06-17T09:30:31.561Z,22.21
2018-06-17T09:33:01.335Z,21.11
2018-06-17T09:35:31.006Z,20.24
2018-06-17T09:38:00.818Z,20.54
2018-06-17T09:40:30.814Z,20.67
2018-06-17T09:43:00.891Z,21.33
2018-06-17T09:45:29.947Z,22.40
2018-06-17T09:47:58.895Z,23.31
2018-06-17T09:50:28.988Z,23.35
2018-06-17T09:52:58.042Z,24.59
2018-06-17T09:55:26.954Z,25.37
2018-06-17T09:57:56.730Z,24.56
2018-06-17T10:00:25.726Z,23.37
2018-06-17T10:02:55.849Z,23.42
2018-06-17T10:05:25.184Z,24.17
2018-06-17T10:07:54.403Z,23.48
2018-06-17T10:10:41.163Z,23.50
2018-06-17T10:13:10.114Z,22.25
2018-06-17T10:15:39.350Z,22.11
2018-06-17T10:18:08.723Z,21.90
2018-06-17T10:20:38.015Z,21.92
2018-06-17T10:23:07.355Z,22.14
2018-06-17T10:25:36.826Z,22.03
2018-06-17T10:28:06.875Z,21.62
2018-06-17T10:30:37.655Z,22.02
2018-06-17T10:33:07.575Z,22.64
2018-06-17T10:35:36.918Z,23.29
2018-06-17T10:38:06.575Z,23.29
2018-06-17T10:40:35.734Z,22.55
2018-06-17T10:43:25.598Z,23.48
2018-06-17T10:45:54.814Z,23.31
2018-06-17T10:48:24.289Z,23.17
2018-06-17T10:50:53.790Z,22.96
2018-06-17T10:53:23.003Z,23.43
2018-06-17T10:55:52.230Z,23.26
2018-06-17T10:58:21.617Z,21.89
2018-06-17T11:00:50.795Z,21.13
2018-06-17T11:03:19.979Z,20.64
2018-06-17T11:05:49.727Z,21.09
2018-06-17T11:08:18.923Z,20.88
2018-06-17T11:10:48.442Z,21.32
2018-06-17T11:13:17.714Z,21.52
2018-06-17T11:15:46.819Z,22.04
2018-06-17T11:18:16.039Z,21.61
2018-06-17T11:20:45.220Z,22.07
2018-06-17T11:23:14.503Z,23.08
2018-06-17T11:25:43.676Z,23.73
2018-06-17T11:28:13.675Z,24.95
2018-06-17T11:30:42.864Z,24.90
2018-06-17T11:33:12.487Z,23.47
2018-06-17T11:35:41.942Z,23.12
2018-06-17T11:38:11.505Z,22.86
2018-06-17T11:40:41.164Z,22.37
2018-06-17T11:43:10.810Z,22.23
2018-06-17T11:45:40.039Z,22.31
2018-06-17T11:48:09.471Z,23.09
2018-06-17T11:50:38.649Z,22.76
2018-06-17T11:53:07.872Z,24.59
2018-06-17T11:55:37.056Z,23.93
2018-06-17T11:58:06.240Z,23.80
2018-06-17T12:00:35.441Z,23.81
2018-06-17T12:03:04.997Z,24.11
2018-06-17T12:05:34.194Z,24.42
2018-06-17T12:08:03.509Z,24.50
2018-06-17T12:10:32.714Z,23.54
2018-06-17T12:13:02.271Z,22.52
2018-06-17T12:15:31.859Z,21.83
2018-06-17T12:18:01.903Z,22.57
2018-06-17T12:20:31.121Z,23.00
2018-06-17T12:23:00.279Z,23.42
2018-06-17T12:25:29.467Z,23.95
2018-06-17T12:27:58.939Z,24.45
2018-06-17T12:30:28.110Z,24.18
2018-06-17T12:32:57.408Z,23.87
2018-06-17T12:35:26.606Z,26.19
2018-06-17T12:37:55.766Z,27.81
2018-06-17T12:40:24.965Z,27.98
2018-06-17T12:42:54.118Z,25.99
2018-06-17T12:45:23.582Z,24.40
2018-06-17T12:47:52.987Z,23.47
2018-06-17T12:50:22.332Z,23.74
2018-06-17T12:52:51.486Z,22.99
2018-06-17T12:55:20.710Z,22.60
2018-06-17T12:57:49.923Z,21.56
2018-06-17T13:00:19.415Z,21.14
2018-06-17T13:02:48.590Z,21.61
2018-06-17T13:05:17.778Z,21.92
2018-06-17T13:07:47.091Z,21.75
2018-06-17T13:10:16.278Z,22.11
2018-06-17T13:12:45.525Z,21.75
2018-06-17T13:15:15.948Z,21.68
2018-06-17T13:17:45.127Z,22.31
2018-06-17T13:20:14.347Z,22.08
2018-06-17T13:22:43.771Z,22.83
2018-06-17T13:25:12.991Z,22.87
2018-06-17T13:27:42.182Z,22.96
2018-06-17T13:30:11.587Z,22.53
2018-06-17T13:32:40.737Z,22.21
2018-06-17T13:35:09.918Z,21.62
2018-06-17T13:37:39.111Z,21.48
2018-06-17T13:40:08.531Z,21.43
2018-06-17T13:42:38.179Z,21.46
2018-06-17T13:45:07.362Z,22.20
2018-06-17T13:47:36.542Z,22.62
2018-06-17T13:50:05.758Z,22.12
2018-06-17T13:52:35.475Z,22.65
2018-06-17T13:55:04.943Z,23.66
2018-06-17T13:57:34.259Z,23.60
2018-06-17T14:00:03.799Z,23.72
2018-06-17T14:02:33.030Z,24.72
2018-06-17T14:05:02.221Z,24.69
2018-06-17T14:07:31.724Z,25.52
2018-06-17T14:10:00.966Z,25.38
2018-06-17T14:12:30.226Z,26.08
2018-06-17T14:14:59.590Z,25.12
2018-06-17T14:17:29.131Z,24.12
2018-06-17T14:19:58.308Z,24.63
2018-06-17T14:22:27.488Z,23.64
2018-06-17T14:24:56.667Z,23.32
2018-06-17T14:27:27.607Z,21.45
2018-06-17T14:29:57.823Z,21.26
2018-06-17T14:32:27.043Z,20.92
2018-06-17T14:34:56.514Z,21.15
2018-06-17T14:37:25.706Z,20.92
2018-06-17T14:39:54.925Z,20.88
2018-06-17T14:42:29.438Z,20.61
2018-06-17T14:45:03.845Z,20.32
2018-06-17T14:47:38.374Z,20.46
2018-06-17T14:50:13.335Z,20.21
2018-06-17T14:52:47.817Z,21.08
2018-06-17T14:55:17.030Z,21.84
2018-06-17T14:57:46.272Z,21.91
2018-06-17T15:00:16.746Z,22.62
2018-06-17T15:02:47.290Z,22.28
2018-06-17T15:05:17.854Z,21.75
2018-06-17T15:07:47.880Z,21.78
2018-06-17T15:10:17.046Z,21.77
2018-06-17T15:12:47.175Z,21.85
2018-06-17T15:16:42.401Z,22.14
2018-06-17T15:19:12.622Z,22.63
2018-06-17T15:21:42.727Z,22.56
2018-06-17T15:24:12.483Z,22.77
2018-06-17T15:26:43.558Z,23.07
2018-06-17T15:29:13.947Z,23.04
2018-06-17T15:31:49.295Z,22.89
2018-06-17T15:34:24.658Z,22.26
2018-06-17T15:36:59.313Z,22.11
2018-06-17T15:39:35.102Z,21.85
2018-06-17T15:42:04.855Z,21.27
2018-06-17T15:44:35.649Z,21.45
2018-06-17T15:47:05.771Z,21.27
2018-06-17T15:49:35.322Z,21.45
2018-06-17T15:52:04.939Z,21.42
2018-06-17T15:54:35.064Z,20.97
2018-06-17T15:57:05.135Z,21.05
2018-06-17T15:59:35.979Z,20.60
2018-06-17T16:02:06.170Z,21.00
2018-06-17T16:04:36.795Z,20.60
2018-06-17T16:07:06.333Z,20.93
2018-06-17T16:09:35.571Z,21.76
2018-06-17T16:12:10.870Z,21.67
2018-06-17T16:14:45.852Z,21.35
2018-06-17T16:17:20.256Z,21.72
2018-06-17T16:19:55.251Z,21.80
2018-06-17T16:22:26.914Z,21.59
2018-06-17T16:24:56.735Z,21.11
2018-06-17T16:27:26.074Z,21.42
2018-06-17T16:29:55.683Z,21.92
2018-06-17T16:32:25.356Z,21.48
2018-06-17T16:34:54.653Z,21.07
2018-06-17T16:37:24.354Z,20.85
2018-06-17T16:39:53.574Z,21.06
2018-06-17T16:42:22.747Z,21.00
2018-06-17T16:44:51.963Z,21.73
2018-06-17T16:47:21.154Z,21.29
2018-06-17T16:49:51.887Z,21.30
2018-06-17T16:52:27.132Z,20.62
2018-06-17T16:55:04.471Z,20.43
2018-06-17T16:57:38.951Z,20.29
2018-06-17T17:00:17.339Z,20.39
2018-06-17T17:02:47.654Z,21.31
2018-06-17T17:05:17.327Z,20.81
2018-06-17T17:07:46.502Z,20.18
2018-06-17T17:10:16.142Z,20.08
2018-06-17T17:12:45.549Z,20.08
2018-06-17T17:15:14.775Z,19.90
2018-06-17T17:17:43.966Z,19.55
2018-06-17T17:20:13.355Z,19.54
2018-06-17T17:22:43.146Z,19.55
2018-06-17T17:25:12.355Z,19.48
2018-06-17T17:27:41.562Z,19.61
2018-06-17T17:30:10.855Z,19.86
2018-06-17T17:32:45.378Z,19.66
2018-06-17T17:35:20.418Z,19.57
2018-06-17T17:37:54.651Z,19.65
2018-06-17T17:40:29.044Z,19.59
2018-06-17T17:42:58.235Z,19.64
2018-06-17T17:45:32.160Z,19.61
2018-06-17T17:48:02.341Z,19.44
2018-06-17T17:50:31.555Z,19.25
2018-06-17T17:53:01.348Z,18.87
2018-06-17T17:55:32.294Z,18.75
2018-06-17T17:58:02.617Z,18.94
2018-06-17T18:00:31.811Z,19.19
2018-06-17T18:03:01.492Z,19.03
2018-06-17T18:05:32.358Z,18.72
2018-06-17T18:08:02.087Z,18.87
2018-06-17T18:10:32.294Z,18.85
2018-06-17T18:13:02.983Z,18.87
2018-06-17T18:15:32.977Z,18.85
2018-06-17T18:18:02.569Z,18.88
2018-06-17T18:20:31.864Z,18.89
2018-06-17T18:23:02.878Z,19.08
2018-06-17T18:25:37.834Z,19.06
2018-06-17T18:28:13.879Z,18.64
2018-06-17T18:30:49.726Z,18.52
2018-06-17T18:33:24.835Z,18.57
2018-06-17T18:36:00.137Z,18.23
2018-06-17T18:38:29.484Z,18.43
2018-06-17T18:40:58.667Z,18.52
2018-06-17T18:43:29.237Z,18.43
2018-06-17T18:46:00.391Z,18.27
2018-06-17T18:48:30.616Z,18.27
2018-06-17T18:51:01.375Z,18.08
2018-06-17T18:53:30.991Z,17.97
2018-06-17T18:56:01.874Z,17.69
2018-06-17T18:58:31.102Z,17.34
2018-06-17T19:01:00.303Z,17.37
2018-06-17T19:03:29.538Z,17.17
2018-06-17T19:05:59.322Z,17.15
2018-06-17T19:08:33.800Z,17.17
2018-06-17T19:11:08.291Z,17.00
2018-06-17T19:13:44.484Z,17.00
2018-06-17T19:16:19.701Z,17.00
2018-06-17T19:18:49.167Z,17.07
2018-06-17T19:21:18.551Z,16.86
2018-06-17T19:23:49.218Z,16.67
2018-06-17T19:26:19.127Z,16.69
2018-06-17T19:28:48.371Z,16.55
2018-06-17T19:31:17.979Z,16.64
2018-06-17T19:33:47.187Z,16.25
2018-06-17T19:36:16.806Z,16.24
2018-06-17T19:38:46.047Z,16.22
2018-06-17T19:41:15.503Z,16.09
2018-06-17T19:43:44.903Z,16.09
2018-06-17T19:46:14.141Z,16.00
2018-06-17T19:48:44.090Z,15.93
2018-06-17T19:51:18.783Z,15.99
2018-06-17T19:53:53.364Z,15.82
2018-06-17T19:56:27.835Z,15.71
2018-06-17T19:59:02.252Z,15.62
2018-06-17T20:01:31.703Z,15.53
2018-06-17T20:04:00.927Z,15.42
2018-06-17T20:06:30.200Z,15.36
2018-06-17T20:08:59.763Z,15.30
2018-06-17T20:11:28.956Z,15.24
2018-06-17T20:13:59.640Z,15.13
2018-06-17T20:16:28.840Z,14.99
2018-06-17T20:18:58.051Z,14.96
2018-06-17T20:21:27.450Z,14.82
2018-06-17T20:23:56.630Z,14.70
2018-06-17T20:26:26.108Z,14.65
2018-06-17T20:28:55.579Z,14.55
2018-06-17T20:31:25.020Z,14.51
2018-06-17T20:33:59.754Z,14.48
2018-06-17T20:36:34.676Z,14.43
2018-06-17T20:39:13.397Z,14.30
2018-06-17T20:41:48.391Z,14.09
2018-06-17T20:44:17.559Z,14.09
2018-06-17T20:46:46.759Z,14.02
2018-06-17T20:49:16.390Z,13.94
2018-06-17T20:51:45.628Z,13.79
2018-06-17T20:54:14.821Z,13.59
2018-06-17T20:56:44.024Z,13.53
2018-06-17T20:59:14.110Z,13.29
2018-06-17T21:01:43.543Z,13.07
2018-06-17T21:04:12.843Z,13.06
2018-06-17T21:06:42.066Z,12.93
2018-06-17T21:09:11.926Z,12.80
2018-06-17T21:11:41.164Z,12.69
2018-06-17T21:14:10.356Z,12.55
2018-06-17T21:16:39.567Z,12.56
2018-06-17T21:19:14.055Z,12.58
2018-06-17T21:21:49.007Z,12.47
2018-06-17T21:24:23.519Z,12.37
2018-06-17T21:26:58.404Z,12.32
2018-06-17T21:29:27.611Z,12.15
2018-06-17T21:31:56.815Z,12.02
2018-06-17T21:34:26.318Z,11.90
2018-06-17T21:36:55.515Z,11.88
2018-06-17T21:39:25.058Z,11.72
2018-06-17T21:41:54.691Z,11.64
2018-06-17T21:44:23.902Z,11.64
2018-06-17T21:46:54.116Z,11.63
2018-06-17T21:49:23.954Z,11.60
2018-06-17T21:51:53.596Z,11.42
2018-06-17T21:54:22.771Z,11.33
2018-06-17T21:56:51.982Z,11.25
2018-06-17T21:59:22.462Z,11.19
2018-06-17T22:01:52.418Z,11.11
2018-06-17T22:04:26.948Z,11.07
2018-06-17T22:06:56.234Z,11.03
2018-06-17T22:09:30.627Z,11.00
2018-06-17T22:13:04.196Z,10.87
2018-06-17T22:15:38.957Z,10.89
2018-06-17T22:18:08.156Z,10.98
2018-06-17T22:20:37.362Z,11.06
2018-06-17T22:23:06.542Z,11.06
2018-06-17T22:25:35.711Z,11.19
2018-06-17T22:28:05.264Z,11.28
2018-06-17T22:30:34.426Z,11.41
2018-06-17T22:33:04.069Z,11.54
2018-06-17T22:35:33.251Z,11.68
2018-06-17T22:38:02.463Z,11.83
2018-06-17T22:40:31.662Z,11.94
2018-06-17T22:43:00.967Z,12.07
2018-06-17T22:45:30.458Z,12.06
2018-06-17T22:48:00.481Z,12.14
2018-06-17T22:50:29.663Z,12.26
2018-06-17T22:53:10.215Z,12.34
2018-06-17T22:55:40.025Z,12.38
2018-06-17T22:58:14.718Z,12.42
2018-06-17T23:00:49.126Z,12.43
2018-06-17T23:03:24.219Z,12.49
2018-06-17T23:05:58.630Z,12.54
2018-06-17T23:08:33.032Z,12.59
2018-06-17T23:11:02.312Z,12.63
2018-06-17T23:13:31.507Z,12.65
2018-06-17T23:16:00.679Z,12.71
2018-06-17T23:18:30.591Z,12.70
2018-06-17T23:20:59.764Z,12.65
2018-06-17T23:23:28.967Z,12.65
2018-06-17T23:25:58.367Z,12.77
2018-06-17T23:28:28.478Z,12.80
2018-06-17T23:30:57.948Z,12.75
2018-06-17T23:33:28.044Z,12.74
2018-06-17T23:35:57.614Z,12.64
2018-06-17T23:38:26.827Z,12.61
2018-06-17T23:40:56.583Z,12.61
2018-06-17T23:43:26.073Z,12.84
2018-06-17T23:46:00.843Z,12.85
2018-06-17T23:48:35.807Z,12.85
2018-06-17T23:51:10.748Z,12.90
2018-06-17T23:53:45.107Z,12.97
2018-06-17T23:56:14.678Z,12.99
2018-06-17T23:58:44.197Z,13.02
